Terminal Aerodrome Forecast
Issued by NWS

Home | Current Version | Previous Version | Graphics & Text | Print | Product List | Glossary On
Versions: 1 2 3 4 5 6 7 8 9 10 11 12 13 14 15 16 17 18
920
FTUS43 KABR 241720
TAFMBG
TAF
KMBG 241720Z 2418/2518 32019G28KT P6SM SKC
     FM250200 35012KT P6SM FEW200
     FM250400 36007KT P6SM FEW250
     FM250600 VRB03KT P6SM SKC
     FM251500 30007KT P6SM SCT140=

USA.gov is the U.S. government's official web portal to all federal, state and local government web resources and services.